Time;durP1;ratioP1;P1;durP2;ratioP2;P2;SDS_P1;SDS_P2;PMS_P1;PMS_P2;Temp;Humidity;BMP_temperature;BMP_pressure;BME280_temperature;BME280_humidity;BME280_pressure;Samples;Min_cycle;Max_cycle;Signal;HPM_P1;HPM_P2
2022/09/13 00:01:17;;;;;;;7.07;4.00;;;18.60;99.90;;;;;;5025842;28;20033;-73
2022/09/13 00:03:42;;;;;;;7.90;4.35;;;18.60;99.90;;;;;;5026100;28;20030;-72
2022/09/13 00:06:17;;;;;;;7.65;4.43;;;18.60;99.90;;;;;;5026226;28;20038;-71
2022/09/13 00:08:43;;;;;;;8.15;4.53;;;18.60;99.90;;;;;;5026482;28;20497;-74
2022/09/13 00:11:19;;;;;;;8.85;4.82;;;18.60;99.90;;;;;;5025727;28;20048;-72
2022/09/13 00:13:45;;;;;;;10.63;4.93;;;18.60;99.90;;;;;;5031207;28;20060;-72
2022/09/13 00:16:13;;;;;;;10.23;5.05;;;18.60;99.90;;;;;;5034085;28;20067;-72
2022/09/13 00:18:39;;;;;;;10.13;4.85;;;18.60;99.90;;;;;;5035061;28;20485;-72
2022/09/13 00:21:13;;;;;;;7.78;4.05;;;18.70;99.90;;;;;;5027527;28;20037;-70
2022/09/13 00:23:40;;;;;;;7.95;4.60;;;18.70;99.90;;;;;;5026537;28;20118;-72
2022/09/13 00:26:12;;;;;;;8.70;4.57;;;18.70;99.90;;;;;;5026663;28;20029;-72
2022/09/13 00:28:38;;;;;;;10.35;4.65;;;18.70;99.90;;;;;;5026202;28;20123;-73
2022/09/13 00:31:06;;;;;;;11.38;5.28;;;18.70;99.90;;;;;;5025879;28;20451;-71
2022/09/13 00:33:32;;;;;;;8.30;4.68;;;18.70;99.90;;;;;;5025155;28;20034;-72
2022/09/13 00:35:58;;;;;;;7.30;4.22;;;18.70;99.90;;;;;;5024344;28;20686;-73
2022/09/13 00:38:23;;;;;;;10.32;4.60;;;18.70;99.90;;;;;;5025778;28;20562;-73
2022/09/13 00:40:49;;;;;;;8.30;4.78;;;18.70;99.90;;;;;;5024595;28;20037;-73
2022/09/13 00:43:18;;;;;;;7.88;4.72;;;18.70;99.90;;;;;;5024772;28;20041;-73
2022/09/13 00:45:45;;;;;;;9.02;5.05;;;18.70;99.90;;;;;;5022890;28;20037;-71
2022/09/13 00:48:20;;;;;;;7.97;4.43;;;18.70;99.90;;;;;;5019911;28;20124;-72
2022/09/13 00:50:54;;;;;;;8.80;5.00;;;18.70;99.90;;;;;;5021701;28;20030;-71
2022/09/13 00:53:29;;;;;;;11.30;5.20;;;18.70;99.90;;;;;;5019942;28;20087;-73
2022/09/13 00:56:01;;;;;;;9.27;4.50;;;18.70;99.90;;;;;;5014961;28;20128;-71
2022/09/13 00:58:40;;;;;;;10.65;5.18;;;18.70;99.90;;;;;;5025035;28;20030;-73
2022/09/13 01:01:10;;;;;;;9.10;5.00;;;18.70;99.90;;;;;;5023213;28;20128;-72
2022/09/13 01:03:36;;;;;;;;;;;18.70;99.90;;;;;;5023875;28;20036;-72
2022/09/13 01:06:19;;;;;;;8.23;4.72;;;18.70;99.90;;;;;;5025867;28;19920;-73
2022/09/13 01:08:50;;;;;;;10.18;5.47;;;18.70;99.90;;;;;;5025344;28;20040;-72
2022/09/13 01:11:24;;;;;;;11.70;5.65;;;18.70;99.90;;;;;;5024812;28;20052;-72
2022/09/13 01:13:50;;;;;;;11.57;5.97;;;18.60;99.90;;;;;;5020912;28;20122;-72
2022/09/13 01:16:16;;;;;;;9.57;5.28;;;18.70;99.90;;;;;;5024975;28;20037;-73
2022/09/13 01:18:42;;;;;;;9.25;4.95;;;18.60;99.90;;;;;;5025043;28;20395;-73
2022/09/13 01:21:29;;;;;;;9.35;5.63;;;18.60;99.90;;;;;;5024735;28;20033;-73
2022/09/13 01:24:24;;;;;;;10.85;5.68;;;18.60;99.90;;;;;;5020705;28;20120;-71
2022/09/13 01:27:17;;;;;;;10.20;5.38;;;18.60;99.90;;;;;;4980439;28;20038;-71
2022/09/13 01:29:58;;;;;;;11.02;6.38;;;18.60;99.90;;;;;;5024390;28;20201;-72
2022/09/13 01:32:26;;;;;;;11.38;5.70;;;18.60;99.90;;;;;;5021426;28;20421;-73
2022/09/13 01:35:10;;;;;;;13.52;5.75;;;18.60;99.90;;;;;;5026251;28;20044;-73
2022/09/13 01:37:50;;;;;;;10.25;5.57;;;18.60;99.90;;;;;;5025379;28;20072;-73
2022/09/13 01:40:43;;;;;;;13.20;6.13;;;18.60;99.90;;;;;;5031983;28;20049;-72
2022/09/13 01:43:36;;;;;;;11.65;6.60;;;18.60;99.90;;;;;;5032888;28;20048;-73
2022/09/13 01:46:06;;;;;;;12.48;5.93;;;18.60;99.90;;;;;;5023848;28;20048;-73
2022/09/13 01:49:02;;;;;;;11.30;6.47;;;18.60;99.90;;;;;;5026228;28;20036;-73
2022/09/13 01:51:42;;;;;;;10.27;6.32;;;18.60;99.90;;;;;;5023143;28;20030;-73
2022/09/13 01:54:33;;;;;;;11.13;6.50;;;18.60;99.90;;;;;;5023699;28;20065;-72
2022/09/13 01:57:11;;;;;;;14.38;6.93;;;18.60;99.90;;;;;;5023412;28;20025;-73
2022/09/13 02:00:00;;;;;;;10.38;6.05;;;18.60;99.90;;;;;;5026220;28;20033;-73
2022/09/13 02:02:38;;;;;;;14.32;6.65;;;18.60;99.90;;;;;;5016476;28;20586;-72
2022/09/13 02:05:16;;;;;;;10.88;6.05;;;18.60;99.90;;;;;;5025438;28;20068;-72
2022/09/13 02:07:48;;;;;;;12.02;6.45;;;18.60;99.90;;;;;;5025090;28;20056;-73
2022/09/13 02:10:26;;;;;;;12.55;6.78;;;18.60;99.90;;;;;;5022917;28;20128;-72
2022/09/13 02:12:54;;;;;;;10.45;6.38;;;18.60;99.90;;;;;;5022914;28;20065;-72
2022/09/13 02:15:30;;;;;;;16.80;6.88;;;18.60;99.90;;;;;;5027764;28;20061;-73
2022/09/13 02:18:12;;;;;;;12.82;6.90;;;18.60;99.90;;;;;;5028800;28;20098;-72
2022/09/13 02:20:42;;;;;;;12.95;7.93;;;18.60;99.90;;;;;;5027120;28;20053;-73
2022/09/13 02:23:19;;;;;;;13.00;6.88;;;18.50;99.90;;;;;;5028045;28;20029;-71
2022/09/13 02:25:47;;;;;;;12.75;6.90;;;18.50;99.90;;;;;;5027759;28;20035;-73
2022/09/13 02:28:20;;;;;;;14.52;7.75;;;18.50;99.90;;;;;;5027489;28;20121;-73
2022/09/13 02:30:50;;;;;;;13.20;7.72;;;18.50;99.90;;;;;;5016737;28;20092;-72
2022/09/13 02:33:23;;;;;;;12.07;6.65;;;18.50;99.90;;;;;;5023849;28;20038;-73
2022/09/13 02:35:58;;;;;;;20.00;8.70;;;18.50;99.90;;;;;;5024521;28;20510;-73
2022/09/13 02:38:31;;;;;;;16.50;7.90;;;18.50;99.90;;;;;;5027896;28;20033;-74
2022/09/13 02:41:02;;;;;;;15.18;8.15;;;18.50;99.90;;;;;;5025997;28;20041;-73
2022/09/13 02:43:40;;;;;;;13.82;8.20;;;18.50;99.90;;;;;;5027147;28;20033;-74
2022/09/13 02:46:14;;;;;;;14.70;8.00;;;18.50;99.90;;;;;;5027498;28;20456;-74
2022/09/13 02:48:54;;;;;;;18.38;8.95;;;18.50;99.90;;;;;;5025835;28;20087;-71
2022/09/13 02:51:44;;;;;;;14.63;8.65;;;18.40;99.90;;;;;;5024511;28;20137;-70
2022/09/13 02:54:31;;;;;;;15.18;8.20;;;18.40;99.90;;;;;;4993482;28;20119;-71
2022/09/13 02:57:00;;;;;;;14.75;8.90;;;18.40;99.90;;;;;;5025274;28;20493;-73
2022/09/13 02:59:26;;;;;;;15.77;8.70;;;18.50;99.90;;;;;;5027433;28;20144;-72
2022/09/13 03:01:58;;;;;;;16.23;9.32;;;18.40;99.90;;;;;;5029858;28;20836;-74
2022/09/13 03:04:26;;;;;;;18.35;9.43;;;18.40;99.90;;;;;;5035564;28;20171;-71
2022/09/13 03:06:51;;;;;;;16.70;8.85;;;18.40;99.90;;;;;;5036681;28;20116;-73
2022/09/13 03:09:18;;;;;;;16.27;8.98;;;18.40;99.90;;;;;;5028554;28;20488;-72
2022/09/13 03:12:21;;;;;;;16.05;8.63;;;18.40;99.90;;;;;;5027480;28;20501;-72
2022/09/13 03:15:20;;;;;;;17.00;8.75;;;18.40;99.90;;;;;;5023486;28;20098;-73
2022/09/13 03:18:22;;;;;;;15.48;8.85;;;18.40;99.90;;;;;;5023133;28;20061;-73
2022/09/13 03:21:08;;;;;;;18.40;8.95;;;18.40;99.90;;;;;;5023700;28;20185;-71
2022/09/13 03:23:49;;;;;;;14.63;8.00;;;18.40;99.90;;;;;;5026239;28;20045;-73
2022/09/13 03:26:36;;;;;;;15.70;8.65;;;18.40;99.90;;;;;;5021285;28;20044;-73
2022/09/13 03:29:33;;;;;;;16.10;9.23;;;18.40;99.90;;;;;;5025970;28;20048;-73
2022/09/13 03:32:23;;;;;;;15.27;8.68;;;18.40;99.90;;;;;;5020444;28;20041;-72
2022/09/13 03:35:25;;;;;;;15.80;8.60;;;18.30;99.90;;;;;;5022480;28;20073;-73
2022/09/13 03:38:12;;;;;;;19.45;9.25;;;18.30;99.90;;;;;;5024921;28;20061;-73
2022/09/13 03:40:44;;;;;;;19.20;10.25;;;18.30;99.90;;;;;;5026306;28;20037;-73
2022/09/13 03:43:15;;;;;;;17.10;8.98;;;18.30;99.90;;;;;;5022270;28;20026;-72
2022/09/13 03:45:49;;;;;;;15.32;9.20;;;18.30;99.90;;;;;;5025093;28;20464;-72
2022/09/13 03:48:16;;;;;;;18.38;8.60;;;18.30;99.90;;;;;;5020909;28;20583;-74
2022/09/13 03:50:44;;;;;;;15.93;8.93;;;18.30;99.90;;;;;;5028559;28;20084;-70
2022/09/13 03:53:12;;;;;;;15.13;8.30;;;18.30;99.90;;;;;;5020677;28;20606;-71
2022/09/13 03:55:41;;;;;;;17.95;9.50;;;18.30;99.90;;;;;;5026266;28;20041;-72
2022/09/13 03:58:16;;;;;;;16.65;9.30;;;18.30;99.90;;;;;;5025446;28;20030;-73
2022/09/13 04:00:43;;;;;;;20.75;10.10;;;18.20;99.90;;;;;;5023129;28;20120;-71
2022/09/13 04:03:09;;;;;;;18.98;9.10;;;18.20;99.90;;;;;;5022524;28;20025;-73
2022/09/13 04:05:35;;;;;;;16.00;8.75;;;18.20;99.90;;;;;;5025838;28;20044;-73
2022/09/13 04:08:02;;;;;;;17.55;9.13;;;18.20;99.90;;;;;;5026047;28;20036;-74
2022/09/13 04:10:30;;;;;;;19.02;9.73;;;18.20;99.90;;;;;;5026426;28;20049;-72
2022/09/13 04:12:57;;;;;;;15.35;8.43;;;18.20;99.90;;;;;;5026012;28;20038;-72
2022/09/13 04:15:23;;;;;;;16.38;8.55;;;18.20;99.90;;;;;;5026210;28;20040;-72
2022/09/13 04:17:49;;;;;;;16.88;9.15;;;18.10;99.90;;;;;;5026673;28;20029;-73
2022/09/13 04:20:14;;;;;;;15.55;8.55;;;18.10;99.90;;;;;;5025710;28;20103;-71
2022/09/13 04:22:41;;;;;;;15.40;8.23;;;18.10;99.90;;;;;;5026107;28;20161;-72
2022/09/13 04:25:07;;;;;;;17.80;9.30;;;18.10;99.90;;;;;;5027146;28;20021;-73
2022/09/13 04:27:34;;;;;;;15.82;8.68;;;18.10;99.90;;;;;;5035947;28;20079;-73
2022/09/13 04:30:00;;;;;;;16.15;8.50;;;18.10;99.90;;;;;;5036774;28;20029;-71
2022/09/13 04:32:26;;;;;;;18.02;9.35;;;18.10;99.90;;;;;;5028864;28;20025;-72
2022/09/13 04:34:51;;;;;;;18.40;9.82;;;18.00;99.90;;;;;;5018803;28;20117;-71
2022/09/13 04:37:17;;;;;;;19.67;9.57;;;18.00;99.90;;;;;;5026021;28;20037;-71
2022/09/13 04:39:43;;;;;;;16.92;9.35;;;18.00;99.90;;;;;;5025882;28;20038;-71
2022/09/13 04:42:10;;;;;;;18.80;9.48;;;18.00;99.90;;;;;;5022142;28;20037;-71
2022/09/13 04:44:35;;;;;;;17.33;8.55;;;17.90;99.90;;;;;;5021320;28;20060;-71
2022/09/13 04:47:01;;;;;;;17.67;9.55;;;17.90;99.90;;;;;;5026414;28;20720;-71
2022/09/13 04:49:27;;;;;;;17.95;9.23;;;17.90;99.90;;;;;;5024876;28;20033;-70
2022/09/13 04:51:52;;;;;;;17.58;9.60;;;17.90;99.90;;;;;;5026332;28;20116;-71
2022/09/13 04:54:18;;;;;;;18.92;8.85;;;18.00;99.90;;;;;;5022772;28;20801;-73
2022/09/13 04:56:44;;;;;;;21.38;9.23;;;18.00;99.90;;;;;;5026154;28;20048;-71
2022/09/13 04:59:11;;;;;;;19.15;10.13;;;18.00;99.90;;;;;;5025448;28;20033;-70
2022/09/13 05:01:37;;;;;;;17.35;9.38;;;18.10;99.90;;;;;;5026080;28;20068;-71
2022/09/13 05:04:03;;;;;;;20.05;9.35;;;18.10;99.90;;;;;;5024132;28;20045;-72
2022/09/13 05:06:29;;;;;;;19.92;9.85;;;18.10;99.90;;;;;;5025611;28;20638;-71
2022/09/13 05:08:56;;;;;;;21.95;10.90;;;18.10;99.90;;;;;;5025394;28;20052;-70
2022/09/13 05:11:23;;;;;;;20.80;10.38;;;18.10;99.90;;;;;;5022751;28;20040;-70
2022/09/13 05:13:54;;;;;;;20.33;9.88;;;18.10;99.90;;;;;;5024663;28;20052;-71
2022/09/13 05:16:21;;;;;;;21.25;9.52;;;18.10;99.90;;;;;;5025821;28;20402;-71
2022/09/13 05:18:47;;;;;;;18.67;9.95;;;18.10;99.90;;;;;;5026221;28;20135;-71
2022/09/13 05:21:13;;;;;;;19.42;10.15;;;18.20;99.90;;;;;;5025361;28;20084;-69
2022/09/13 05:23:38;;;;;;;19.17;9.95;;;18.10;99.90;;;;;;5025255;28;20045;-69
2022/09/13 05:26:05;;;;;;;21.33;10.32;;;18.10;99.90;;;;;;5016287;28;20493;-71
2022/09/13 05:28:33;;;;;;;20.58;10.00;;;18.20;99.90;;;;;;5019938;28;20062;-70
2022/09/13 05:31:09;;;;;;;20.48;9.73;;;18.20;99.90;;;;;;5022011;28;20038;-72
2022/09/13 05:33:37;;;;;;;22.45;10.30;;;18.20;99.90;;;;;;5016216;28;20482;-71
2022/09/13 05:36:04;;;;;;;17.38;9.30;;;18.20;99.90;;;;;;5017363;28;20708;-70
2022/09/13 05:38:31;;;;;;;20.02;10.10;;;18.30;99.90;;;;;;5016361;28;20428;-70
2022/09/13 05:40:58;;;;;;;21.20;9.30;;;18.30;99.90;;;;;;5017474;28;20064;-72
2022/09/13 05:43:26;;;;;;;18.35;9.50;;;18.30;99.90;;;;;;5013545;28;20295;-70
2022/09/13 05:46:03;;;;;;;18.00;9.77;;;18.30;99.90;;;;;;5015170;28;20075;-71
2022/09/13 05:48:29;;;;;;;19.92;9.75;;;18.30;99.90;;;;;;5012703;28;20046;-71
2022/09/13 05:50:55;;;;;;;18.17;9.25;;;18.40;99.90;;;;;;5026095;28;20033;-71
2022/09/13 05:53:21;;;;;;;19.27;8.93;;;18.40;99.90;;;;;;5020606;28;20038;-72
2022/09/13 05:55:46;;;;;;;17.25;9.32;;;18.40;99.90;;;;;;5019915;28;20041;-71
2022/09/13 05:58:12;;;;;;;17.48;9.82;;;18.40;99.90;;;;;;5019006;28;20030;-70
2022/09/13 06:00:37;;;;;;;17.13;8.75;;;18.40;99.90;;;;;;5016105;28;20037;-71
2022/09/13 06:03:03;;;;;;;18.85;9.70;;;18.40;99.90;;;;;;5014574;28;20493;-70
2022/09/13 06:05:28;;;;;;;17.30;9.10;;;18.50;99.90;;;;;;5014797;28;20038;-71
2022/09/13 06:07:54;;;;;;;21.23;9.63;;;18.50;99.90;;;;;;5017741;28;20033;-72
2022/09/13 06:10:20;;;;;;;19.60;9.32;;;18.50;99.90;;;;;;5014191;28;20068;-70
2022/09/13 06:12:46;;;;;;;19.75;9.60;;;18.60;99.90;;;;;;5017451;28;20517;-71
2022/09/13 06:15:12;;;;;;;22.90;11.70;;;18.60;99.90;;;;;;5016588;28;20125;-69
2022/09/13 06:17:38;;;;;;;19.05;10.20;;;18.60;99.90;;;;;;5015323;28;20139;-72
2022/09/13 06:20:04;;;;;;;23.10;10.85;;;18.70;99.90;;;;;;5016674;28;20117;-70
2022/09/13 06:22:32;;;;;;;21.98;10.30;;;18.70;99.90;;;;;;5016180;28;20657;-72
2022/09/13 06:24:58;;;;;;;18.25;8.68;;;18.70;99.90;;;;;;5015093;28;20064;-73
2022/09/13 06:27:24;;;;;;;17.92;9.73;;;18.80;99.90;;;;;;5017484;28;20402;-73
2022/09/13 06:29:50;;;;;;;21.15;9.93;;;18.80;99.90;;;;;;5018743;28;20047;-72
2022/09/13 06:32:15;;;;;;;16.92;9.10;;;18.80;99.90;;;;;;5013588;28;20136;-70
2022/09/13 06:34:41;;;;;;;17.23;9.82;;;18.80;99.90;;;;;;5014256;28;20060;-72
2022/09/13 06:37:07;;;;;;;23.05;9.73;;;18.90;99.90;;;;;;5017500;28;20084;-71
2022/09/13 06:39:33;;;;;;;25.75;9.88;;;18.90;99.90;;;;;;5012181;28;20037;-72
2022/09/13 06:41:59;;;;;;;21.67;9.75;;;18.90;99.90;;;;;;5013512;28;20034;-73
2022/09/13 06:44:24;;;;;;;19.80;9.65;;;19.00;99.90;;;;;;5015794;28;20034;-72
2022/09/13 06:46:50;;;;;;;19.63;8.98;;;18.90;99.90;;;;;;5015191;28;20044;-71
2022/09/13 06:49:16;;;;;;;23.10;10.48;;;19.00;99.90;;;;;;5014654;28;20128;-71
2022/09/13 06:51:41;;;;;;;28.17;10.73;;;19.00;99.90;;;;;;5017233;28;20497;-73
2022/09/13 06:54:07;;;;;;;21.50;8.95;;;19.10;99.90;;;;;;5015825;28;20055;-69
2022/09/13 06:56:36;;;;;;;21.10;9.45;;;19.10;99.90;;;;;;5015496;28;20180;-72
2022/09/13 06:59:05;;;;;;;21.73;9.43;;;19.10;99.90;;;;;;5015328;28;20030;-70
2022/09/13 07:01:42;;;;;;;19.95;8.55;;;19.20;99.90;;;;;;5017853;28;20387;-72
2022/09/13 07:04:10;;;;;;;15.43;8.15;;;19.30;99.90;;;;;;5018839;28;20554;-72
2022/09/13 07:06:39;;;;;;;23.88;10.30;;;19.40;99.90;;;;;;5018212;28;20049;-72
2022/09/13 07:09:07;;;;;;;16.23;8.30;;;19.40;99.90;;;;;;5018536;28;20107;-72
2022/09/13 07:11:35;;;;;;;15.43;8.63;;;19.50;99.90;;;;;;5015143;28;20056;-73
2022/09/13 07:14:01;;;;;;;16.05;7.40;;;19.60;99.90;;;;;;5019275;28;20037;-72
2022/09/13 07:16:29;;;;;;;13.48;7.20;;;19.70;99.90;;;;;;5015785;28;20059;-73
2022/09/13 07:19:00;;;;;;;19.83;7.90;;;19.80;99.90;;;;;;5018380;28;20046;-71
2022/09/13 07:21:27;;;;;;;13.82;6.80;;;20.00;99.90;;;;;;5019709;28;20026;-71
2022/09/13 07:23:54;;;;;;;9.90;6.00;;;20.10;99.90;;;;;;5014392;28;20041;-72
2022/09/13 07:26:20;;;;;;;10.35;5.45;;;20.20;99.90;;;;;;5015563;28;20040;-71
2022/09/13 07:28:48;;;;;;;13.77;5.57;;;20.30;99.90;;;;;;5019152;28;20079;-71
2022/09/13 07:31:19;;;;;;;9.23;5.65;;;20.40;99.90;;;;;;5017502;28;20033;-72
2022/09/13 07:33:45;;;;;;;11.35;5.97;;;20.50;99.90;;;;;;5013105;28;20095;-70
2022/09/13 07:36:12;;;;;;;9.05;5.00;;;20.40;99.90;;;;;;5018450;28;20038;-71
2022/09/13 07:38:40;;;;;;;9.77;5.38;;;20.40;99.90;;;;;;5013347;28;20911;-72
2022/09/13 07:41:10;;;;;;;11.02;5.95;;;20.40;99.90;;;;;;5017567;28;20122;-71
2022/09/13 07:43:36;;;;;;;9.10;5.27;;;20.40;99.90;;;;;;5019494;28;20050;-71
2022/09/13 07:46:07;;;;;;;9.35;4.85;;;20.50;99.90;;;;;;5017207;28;20037;-71
2022/09/13 07:48:35;;;;;;;10.65;6.03;;;20.50;99.90;;;;;;5017958;28;20037;-72
2022/09/13 07:51:08;;;;;;;11.60;5.35;;;20.60;99.90;;;;;;5018447;28;20041;-71
2022/09/13 07:53:35;;;;;;;10.57;5.47;;;20.70;99.90;;;;;;5017465;28;20046;-72
2022/09/13 07:56:07;;;;;;;8.05;4.88;;;20.80;99.90;;;;;;5017211;28;20029;-71
2022/09/13 07:58:36;;;;;;;12.60;5.28;;;20.80;99.90;;;;;;5016601;28;20037;-71
2022/09/13 08:01:28;;;;;;;9.57;4.40;;;20.90;99.90;;;;;;5018824;28;20021;-69
2022/09/13 08:03:59;;;;;;;8.05;4.20;;;20.80;99.90;;;;;;5015367;28;20029;-72
2022/09/13 08:06:27;;;;;;;9.82;4.05;;;20.70;99.90;;;;;;5013788;28;20041;-72
2022/09/13 08:08:53;;;;;;;6.82;3.78;;;20.80;99.90;;;;;;5015356;28;20498;-72
2022/09/13 08:11:40;;;;;;;5.07;2.95;;;20.70;99.90;;;;;;5017050;28;20108;-72
2022/09/13 08:14:08;;;;;;;7.47;3.15;;;20.60;99.90;;;;;;5018046;28;20042;-73
2022/09/13 08:16:34;;;;;;;6.65;2.63;;;20.60;99.90;;;;;;5016975;28;20541;-70
2022/09/13 08:19:02;;;;;;;4.25;2.58;;;20.60;99.90;;;;;;5016688;28;20045;-73
2022/09/13 08:21:33;;;;;;;5.93;2.95;;;20.60;99.90;;;;;;5017621;28;20083;-72
2022/09/13 08:23:59;;;;;;;5.22;2.60;;;20.60;99.90;;;;;;5011610;28;20143;-71
2022/09/13 08:26:29;;;;;;;5.15;2.10;;;20.60;99.90;;;;;;5016211;28;20061;-72
2022/09/13 08:28:57;;;;;;;6.45;2.70;;;20.60;99.90;;;;;;5016046;28;20061;-72
2022/09/13 08:31:23;;;;;;;3.88;1.75;;;20.70;99.90;;;;;;5015392;28;20042;-71
2022/09/13 08:33:49;;;;;;;5.32;2.03;;;20.70;99.90;;;;;;5017950;28;20051;-73
2022/09/13 08:36:15;;;;;;;6.05;1.80;;;20.70;99.90;;;;;;5017316;28;20448;-73
2022/09/13 08:38:49;;;;;;;2.15;1.30;;;20.70;99.90;;;;;;5017056;28;20037;-71
2022/09/13 08:41:34;;;;;;;4.68;1.50;;;20.70;99.90;;;;;;5015856;28;20049;-70
2022/09/13 08:44:03;;;;;;;7.00;2.00;;;20.70;99.90;;;;;;5016215;28;20034;-72
2022/09/13 08:46:37;;;;;;;3.28;1.58;;;20.90;99.90;;;;;;5018161;28;20092;-73
2022/09/13 08:49:09;;;;;;;3.55;1.77;;;21.00;99.90;;;;;;5016048;28;20041;-72
2022/09/13 08:51:46;;;;;;;4.20;1.60;;;21.10;99.90;;;;;;5015489;28;20528;-71
2022/09/13 08:54:14;;;;;;;3.25;1.23;;;21.30;99.90;;;;;;5014578;28;20033;-71
2022/09/13 08:56:50;;;;;;;7.43;2.10;;;21.40;99.90;;;;;;5017792;28;20033;-74
2022/09/13 08:59:34;;;;;;;3.00;1.27;;;21.60;99.90;;;;;;5014003;28;20149;-71
2022/09/13 09:02:15;;;;;;;2.30;1.13;;;21.70;99.90;;;;;;5013198;28;20060;-73
2022/09/13 09:05:04;;;;;;;1.40;0.90;;;21.70;99.90;;;;;;5014891;28;20061;-71
2022/09/13 09:07:41;;;;;;;2.38;1.30;;;21.60;99.90;;;;;;5016090;28;20037;-72
2022/09/13 09:10:15;;;;;;;2.58;1.35;;;21.70;99.90;;;;;;5014913;28;20052;-72
2022/09/13 09:12:54;;;;;;;3.08;1.33;;;21.80;99.90;;;;;;5016133;28;20037;-72
2022/09/13 09:15:34;;;;;;;1.88;0.80;;;21.90;99.90;;;;;;5017593;28;20055;-72
2022/09/13 09:18:12;;;;;;;4.63;0.88;;;21.90;99.90;;;;;;5015688;28;20038;-74
2022/09/13 09:20:46;;;;;;;2.38;1.08;;;21.90;99.90;;;;;;5013446;28;20502;-70
2022/09/13 09:23:29;;;;;;;3.17;1.08;;;21.90;99.90;;;;;;5014248;28;20047;-73
2022/09/13 09:26:04;;;;;;;2.42;1.20;;;21.90;99.90;;;;;;5014484;28;20030;-72
2022/09/13 09:28:30;;;;;;;2.20;1.10;;;21.80;99.90;;;;;;5014040;28;20123;-73
2022/09/13 09:31:05;;;;;;;3.05;0.88;;;21.90;99.90;;;;;;5011845;28;20815;-72
2022/09/13 09:33:53;;;;;;;2.13;0.77;;;21.90;99.90;;;;;;5015271;28;20876;-72
2022/09/13 09:37:14;;;;;;;2.25;0.73;;;22.00;99.90;;;;;;5014591;28;20641;-72
2022/09/13 09:39:41;;;;;;;1.88;0.77;;;22.00;99.90;;;;;;5007979;28;20048;-71
2022/09/13 09:42:17;;;;;;;2.85;0.90;;;21.90;99.90;;;;;;5014503;28;20040;-73
2022/09/13 09:44:47;;;;;;;0.82;0.63;;;22.00;99.90;;;;;;5012178;28;20044;-72
2022/09/13 09:47:22;;;;;;;3.13;0.75;;;21.90;99.90;;;;;;5010338;28;20197;-72
2022/09/13 09:50:11;;;;;;;2.35;0.80;;;21.90;99.90;;;;;;5013178;28;20038;-74
2022/09/13 09:53:27;;;;;;;1.25;0.68;;;21.90;99.90;;;;;;5013049;28;20398;-73
2022/09/13 09:56:22;;;;;;;3.58;0.60;;;21.80;99.90;;;;;;4993123;28;20116;-71
2022/09/13 09:58:49;;;;;;;1.45;0.50;;;21.70;99.90;;;;;;5012508;28;20044;-71
2022/09/13 10:01:35;;;;;;;1.17;0.43;;;21.70;99.90;;;;;;5013074;28;20064;-70
2022/09/13 10:04:09;;;;;;;1.13;0.43;;;21.50;99.90;;;;;;5012554;28;20041;-72
2022/09/13 10:06:37;;;;;;;1.55;0.40;;;21.50;99.90;;;;;;5014400;28;20041;-70
2022/09/13 10:09:12;;;;;;;2.25;0.52;;;21.50;99.90;;;;;;5012517;28;20034;-73
2022/09/13 10:11:49;;;;;;;2.05;0.45;;;21.50;99.90;;;;;;5013691;28;20494;-73
2022/09/13 10:14:33;;;;;;;2.65;0.50;;;21.50;99.90;;;;;;5011516;28;20034;-70
2022/09/13 10:17:20;;;;;;;0.77;0.35;;;21.60;99.90;;;;;;5014259;28;20081;-73
2022/09/13 10:20:20;;;;;;;2.78;0.50;;;21.60;99.90;;;;;;5015498;28;20117;-72
2022/09/13 10:23:10;;;;;;;2.92;0.85;;;21.50;99.90;;;;;;5012540;28;20041;-71
2022/09/13 10:25:36;;;;;;;;;;;21.50;99.90;;;;;;5015803;28;20041;-71
2022/09/13 10:28:08;;;;;;;3.65;0.60;;;21.60;99.90;;;;;;5016637;28;20613;-72
2022/09/13 10:30:41;;;;;;;3.40;0.63;;;21.70;99.90;;;;;;5010998;28;20862;-71
2022/09/13 10:33:28;;;;;;;1.40;0.50;;;21.70;99.90;;;;;;5015110;28;20516;-71
2022/09/13 10:35:57;;;;;;;4.55;0.55;;;21.70;99.90;;;;;;5019708;28;20271;-70
2022/09/13 10:39:03;;;;;;;2.20;0.50;;;21.90;99.90;;;;;;5016952;28;20213;-70
2022/09/13 10:41:32;;;;;;;1.38;0.57;;;21.90;99.90;;;;;;5015714;28;20057;-72
2022/09/13 10:44:00;;;;;;;3.42;0.65;;;22.00;99.90;;;;;;5018336;28;20029;-72
2022/09/13 10:46:32;;;;;;;2.03;0.50;;;22.10;99.90;;;;;;5017465;28;20038;-71
2022/09/13 10:48:58;;;;;;;2.58;0.38;;;22.10;99.90;;;;;;5018660;28;20056;-71
2022/09/13 10:51:26;;;;;;;3.50;0.30;;;22.20;99.90;;;;;;5015946;28;20323;-72
2022/09/13 10:54:22;;;;;;;1.95;0.40;;;22.50;99.90;;;;;;5018683;28;20632;-72
2022/09/13 10:56:49;;;;;;;5.15;0.50;;;22.60;99.90;;;;;;5017072;28;20030;-69
2022/09/13 10:59:28;;;;;;;1.27;0.63;;;22.80;99.90;;;;;;5019736;28;20033;-72
2022/09/13 11:01:57;;;;;;;1.83;0.63;;;22.80;99.90;;;;;;5015016;28;20038;-71
2022/09/13 11:04:38;;;;;;;5.18;0.60;;;22.70;99.90;;;;;;5014754;28;20036;-72
2022/09/13 11:07:33;;;;;;;7.22;0.80;;;22.60;99.90;;;;;;5018537;28;20120;-72
2022/09/13 11:10:10;;;;;;;1.85;0.80;;;22.60;99.90;;;;;;5019167;28;20038;-70
2022/09/13 11:13:00;;;;;;;4.15;0.47;;;22.70;99.90;;;;;;5018221;28;20123;-72
2022/09/13 11:15:35;;;;;;;1.42;0.32;;;22.80;99.90;;;;;;5013581;28;20417;-72
2022/09/13 11:18:43;;;;;;;3.17;0.65;;;22.80;99.90;;;;;;5018198;28;20433;-71
2022/09/13 11:21:38;;;;;;;5.78;0.88;;;22.80;99.90;;;;;;5020401;28;20034;-70
2022/09/13 11:24:33;;;;;;;3.45;0.60;;;22.90;99.90;;;;;;5018547;28;20117;-70
2022/09/13 11:27:01;;;;;;;3.65;0.60;;;22.90;99.90;;;;;;5018977;28;20033;-70
2022/09/13 11:29:36;;;;;;;0.55;0.25;;;23.00;99.90;;;;;;5018244;28;20037;-72
2022/09/13 11:32:20;;;;;;;1.45;0.63;;;23.10;99.90;;;;;;5018187;28;20405;-71
2022/09/13 11:35:23;;;;;;;2.10;0.60;;;23.00;99.90;;;;;;5018635;28;20060;-71
2022/09/13 11:37:53;;;;;;;4.13;0.40;;;22.90;99.90;;;;;;5015245;28;20033;-72
2022/09/13 11:40:37;;;;;;;0.65;0.32;;;22.70;99.90;;;;;;5018029;28;20041;-69
2022/09/13 11:43:03;;;;;;;6.30;1.10;;;22.70;99.90;;;;;;5016067;28;20041;-71
2022/09/13 11:45:59;;;;;;;2.08;0.50;;;22.60;99.90;;;;;;5017016;28;20111;-74
2022/09/13 11:48:49;;;;;;;1.05;0.20;;;22.50;99.90;;;;;;5019104;28;20033;-69
2022/09/13 11:51:30;;;;;;;2.35;0.35;;;22.50;99.90;;;;;;5014640;28;22461;-71
2022/09/13 11:54:38;;;;;;;4.95;0.63;;;22.60;99.90;;;;;;5012350;28;20048;-73
2022/09/13 11:57:13;;;;;;;0.85;0.30;;;22.60;99.90;;;;;;5014845;28;20533;-70
2022/09/13 11:59:47;;;;;;;1.02;0.30;;;22.60;99.90;;;;;;5017518;28;20029;-72
2022/09/13 12:02:42;;;;;;;2.05;0.50;;;22.70;99.90;;;;;;5017872;28;20140;-72
2022/09/13 12:05:20;;;;;;;0.63;0.10;;;22.70;99.90;;;;;;5017249;28;20034;-71
2022/09/13 12:08:08;;;;;;;2.45;0.20;;;22.80;99.90;;;;;;5017358;28;20389;-72
2022/09/13 12:10:58;;;;;;;1.23;0.20;;;22.80;99.90;;;;;;5015245;28;20037;-70
2022/09/13 12:13:30;;;;;;;2.87;0.37;;;22.80;99.90;;;;;;5014693;28;20045;-72
2022/09/13 12:16:05;;;;;;;3.20;0.68;;;22.80;99.90;;;;;;5017910;28;20112;-70
2022/09/13 12:18:43;;;;;;;1.30;0.20;;;22.70;99.90;;;;;;5017092;28;20125;-72
2022/09/13 12:21:20;;;;;;;4.70;0.30;;;22.70;99.90;;;;;;5014837;28;20053;-71
2022/09/13 12:24:08;;;;;;;0.52;0.15;;;22.80;99.90;;;;;;5018408;28;20516;-69
2022/09/13 12:26:44;;;;;;;0.93;0.20;;;22.60;99.90;;;;;;5017308;28;20191;-71
2022/09/13 12:29:47;;;;;;;1.70;0.40;;;22.50;99.90;;;;;;5016145;28;20032;-69
2022/09/13 12:32:14;;;;;;;2.15;0.73;;;22.40;99.90;;;;;;5011659;28;20037;-70
2022/09/13 12:34:58;;;;;;;3.00;0.68;;;22.30;99.90;;;;;;5016276;28;20116;-71
2022/09/13 12:37:57;;;;;;;0.40;0.10;;;22.30;99.90;;;;;;5015717;28;20075;-71
2022/09/13 12:40:42;;;;;;;1.10;0.15;;;22.30;99.90;;;;;;5017282;28;20132;-70
2022/09/13 12:43:41;;;;;;;0.45;0.20;;;22.30;99.90;;;;;;5014506;28;20030;-71
2022/09/13 12:46:22;;;;;;;1.38;0.47;;;22.40;99.90;;;;;;5016618;28;20117;-68
2022/09/13 12:48:54;;;;;;;2.40;0.30;;;22.40;99.90;;;;;;5015857;28;20042;-72
2022/09/13 12:51:47;;;;;;;2.15;0.57;;;22.40;99.90;;;;;;5018412;28;20112;-71
2022/09/13 12:54:57;;;;;;;3.05;0.32;;;22.50;99.90;;;;;;5016403;28;20065;-71
2022/09/13 12:57:37;;;;;;;0.73;0.30;;;22.50;99.90;;;;;;4981603;28;20058;-69
2022/09/13 13:00:20;;;;;;;2.92;0.20;;;22.50;99.90;;;;;;5014638;28;20088;-71
2022/09/13 13:02:52;;;;;;;2.92;0.10;;;22.50;99.90;;;;;;5015089;28;20040;-71
2022/09/13 13:05:34;;;;;;;1.00;0.15;;;22.50;99.90;;;;;;5016686;28;20529;-69
2022/09/13 13:08:04;;;;;;;1.73;0.30;;;22.50;99.90;;;;;;5017018;28;20048;-71
2022/09/13 13:10:35;;;;;;;1.65;0.30;;;22.50;99.90;;;;;;5013076;28;20049;-71
2022/09/13 13:13:34;;;;;;;1.52;0.38;;;22.40;99.90;;;;;;5015497;28;20057;-71
2022/09/13 13:16:20;;;;;;;3.05;0.40;;;22.30;99.90;;;;;;5015312;28;20099;-71
2022/09/13 13:18:48;;;;;;;1.50;0.30;;;22.20;99.90;;;;;;5016847;28;20025;-71